sensor_id;sensor_type;location;lat;lon;timestamp;P1;durP1;ratioP1;P2;durP2;ratioP2
38479;SDS011;62333;51.980;5.934;2022-11-15T00:00:48;30.10;;;16.15;;
38479;SDS011;62333;51.980;5.934;2022-11-15T00:03:15;31.98;;;16.52;;
38479;SDS011;62333;51.980;5.934;2022-11-15T00:05:47;28.13;;;16.92;;
38479;SDS011;62333;51.980;5.934;2022-11-15T00:08:13;26.88;;;15.60;;
38479;SDS011;62333;51.980;5.934;2022-11-15T00:10:38;33.85;;;19.00;;
38479;SDS011;62333;51.980;5.934;2022-11-15T00:13:05;27.05;;;16.25;;
38479;SDS011;62333;51.980;5.934;2022-11-15T00:15:34;26.95;;;16.55;;
38479;SDS011;62333;51.980;5.934;2022-11-15T00:18:01;23.02;;;16.17;;
38479;SDS011;62333;51.980;5.934;2022-11-15T00:20:27;24.73;;;15.93;;
38479;SDS011;62333;51.980;5.934;2022-11-15T00:22:52;26.10;;;15.27;;
38479;SDS011;62333;51.980;5.934;2022-11-15T00:25:18;30.60;;;17.63;;
38479;SDS011;62333;51.980;5.934;2022-11-15T00:27:44;25.65;;;16.90;;
38479;SDS011;62333;51.980;5.934;2022-11-15T00:30:10;25.50;;;15.40;;
38479;SDS011;62333;51.980;5.934;2022-11-15T00:32:36;26.60;;;16.50;;
38479;SDS011;62333;51.980;5.934;2022-11-15T00:35:02;26.83;;;15.30;;
38479;SDS011;62333;51.980;5.934;2022-11-15T00:37:28;30.27;;;16.45;;
38479;SDS011;62333;51.980;5.934;2022-11-15T00:39:53;22.02;;;13.20;;
38479;SDS011;62333;51.980;5.934;2022-11-15T00:42:19;23.83;;;14.13;;
38479;SDS011;62333;51.980;5.934;2022-11-15T00:44:44;30.13;;;16.52;;
38479;SDS011;62333;51.980;5.934;2022-11-15T00:47:10;29.75;;;15.65;;
38479;SDS011;62333;51.980;5.934;2022-11-15T00:49:36;28.13;;;15.50;;
38479;SDS011;62333;51.980;5.934;2022-11-15T00:52:01;26.35;;;16.05;;
38479;SDS011;62333;51.980;5.934;2022-11-15T00:54:27;30.67;;;18.95;;
38479;SDS011;62333;51.980;5.934;2022-11-15T00:56:53;25.88;;;14.85;;
38479;SDS011;62333;51.980;5.934;2022-11-15T00:59:18;29.50;;;17.73;;
38479;SDS011;62333;51.980;5.934;2022-11-15T01:01:44;24.73;;;15.05;;
38479;SDS011;62333;51.980;5.934;2022-11-15T01:04:09;29.67;;;17.73;;
38479;SDS011;62333;51.980;5.934;2022-11-15T01:06:35;23.88;;;15.23;;
38479;SDS011;62333;51.980;5.934;2022-11-15T01:09:01;24.13;;;15.00;;
38479;SDS011;62333;51.980;5.934;2022-11-15T01:11:26;25.08;;;15.07;;
38479;SDS011;62333;51.980;5.934;2022-11-15T01:13:52;29.42;;;15.88;;
38479;SDS011;62333;51.980;5.934;2022-11-15T01:16:18;21.58;;;12.90;;
38479;SDS011;62333;51.980;5.934;2022-11-15T01:18:44;31.65;;;20.10;;
38479;SDS011;62333;51.980;5.934;2022-11-15T01:21:11;34.03;;;17.92;;
38479;SDS011;62333;51.980;5.934;2022-11-15T01:23:39;23.95;;;15.52;;
38479;SDS011;62333;51.980;5.934;2022-11-15T01:26:06;30.48;;;17.60;;
38479;SDS011;62333;51.980;5.934;2022-11-15T01:28:34;36.17;;;20.08;;
38479;SDS011;62333;51.980;5.934;2022-11-15T01:31:02;25.70;;;16.27;;
38479;SDS011;62333;51.980;5.934;2022-11-15T01:33:29;23.73;;;15.00;;
38479;SDS011;62333;51.980;5.934;2022-11-15T01:35:55;26.27;;;14.95;;
38479;SDS011;62333;51.980;5.934;2022-11-15T01:38:21;25.50;;;14.60;;
38479;SDS011;62333;51.980;5.934;2022-11-15T01:40:48;28.60;;;14.98;;
38479;SDS011;62333;51.980;5.934;2022-11-15T01:43:18;25.75;;;12.95;;
38479;SDS011;62333;51.980;5.934;2022-11-15T01:45:50;25.05;;;16.58;;
38479;SDS011;62333;51.980;5.934;2022-11-15T01:48:21;23.17;;;16.67;;
38479;SDS011;62333;51.980;5.934;2022-11-15T01:50:50;23.30;;;13.93;;
38479;SDS011;62333;51.980;5.934;2022-11-15T01:53:16;16.85;;;12.13;;
38479;SDS011;62333;51.980;5.934;2022-11-15T01:55:44;19.90;;;13.20;;
38479;SDS011;62333;51.980;5.934;2022-11-15T01:58:09;19.52;;;13.52;;
38479;SDS011;62333;51.980;5.934;2022-11-15T02:00:35;19.95;;;12.60;;
38479;SDS011;62333;51.980;5.934;2022-11-15T02:03:01;20.92;;;13.57;;
38479;SDS011;62333;51.980;5.934;2022-11-15T02:05:27;19.80;;;14.38;;
38479;SDS011;62333;51.980;5.934;2022-11-15T02:07:55;19.38;;;15.45;;
38479;SDS011;62333;51.980;5.934;2022-11-15T02:10:22;21.77;;;16.40;;
38479;SDS011;62333;51.980;5.934;2022-11-15T02:12:49;20.42;;;13.52;;
38479;SDS011;62333;51.980;5.934;2022-11-15T02:15:15;19.88;;;13.48;;
38479;SDS011;62333;51.980;5.934;2022-11-15T02:26:11;17.15;;;11.82;;
38479;SDS011;62333;51.980;5.934;2022-11-15T02:29:06;23.35;;;12.38;;
38479;SDS011;62333;51.980;5.934;2022-11-15T02:36:57;22.92;;;12.60;;
38479;SDS011;62333;51.980;5.934;2022-11-15T02:42:25;23.88;;;15.93;;
38479;SDS011;62333;51.980;5.934;2022-11-15T02:45:13;24.40;;;14.68;;
38479;SDS011;62333;51.980;5.934;2022-11-15T02:47:46;20.67;;;12.82;;
38479;SDS011;62333;51.980;5.934;2022-11-15T02:50:17;20.20;;;12.43;;
38479;SDS011;62333;51.980;5.934;2022-11-15T02:52:45;21.30;;;12.95;;
38479;SDS011;62333;51.980;5.934;2022-11-15T03:01:00;14.65;;;9.68;;
38479;SDS011;62333;51.980;5.934;2022-11-15T03:09:07;23.73;;;13.40;;
38479;SDS011;62333;51.980;5.934;2022-11-15T03:11:41;21.35;;;12.02;;
38479;SDS011;62333;51.980;5.934;2022-11-15T03:17:02;22.92;;;13.38;;
38479;SDS011;62333;51.980;5.934;2022-11-15T03:22:16;16.17;;;10.43;;
38479;SDS011;62333;51.980;5.934;2022-11-15T03:24:43;20.38;;;11.55;;
38479;SDS011;62333;51.980;5.934;2022-11-15T03:27:12;19.83;;;11.45;;
38479;SDS011;62333;51.980;5.934;2022-11-15T03:29:46;18.10;;;12.50;;
38479;SDS011;62333;51.980;5.934;2022-11-15T03:32:19;16.63;;;12.45;;
38479;SDS011;62333;51.980;5.934;2022-11-15T03:34:52;16.48;;;9.95;;
38479;SDS011;62333;51.980;5.934;2022-11-15T03:37:24;14.65;;;10.95;;
38479;SDS011;62333;51.980;5.934;2022-11-15T03:40:00;17.45;;;11.38;;
38479;SDS011;62333;51.980;5.934;2022-11-15T03:42:30;13.80;;;10.02;;
38479;SDS011;62333;51.980;5.934;2022-11-15T03:47:38;13.90;;;11.25;;
38479;SDS011;62333;51.980;5.934;2022-11-15T03:50:12;20.05;;;12.13;;
38479;SDS011;62333;51.980;5.934;2022-11-15T03:52:40;17.10;;;12.48;;
38479;SDS011;62333;51.980;5.934;2022-11-15T03:55:08;21.50;;;13.15;;
38479;SDS011;62333;51.980;5.934;2022-11-15T03:57:36;20.73;;;14.10;;
38479;SDS011;62333;51.980;5.934;2022-11-15T04:00:03;16.73;;;11.40;;
38479;SDS011;62333;51.980;5.934;2022-11-15T04:02:29;16.95;;;11.60;;
38479;SDS011;62333;51.980;5.934;2022-11-15T04:04:55;14.40;;;11.20;;
38479;SDS011;62333;51.980;5.934;2022-11-15T04:07:21;20.60;;;12.93;;
38479;SDS011;62333;51.980;5.934;2022-11-15T04:09:47;26.20;;;16.13;;
38479;SDS011;62333;51.980;5.934;2022-11-15T04:12:28;25.02;;;17.23;;
38479;SDS011;62333;51.980;5.934;2022-11-15T04:17:37;20.65;;;13.88;;
38479;SDS011;62333;51.980;5.934;2022-11-15T04:20:05;16.77;;;11.60;;
38479;SDS011;62333;51.980;5.934;2022-11-15T04:23:11;18.88;;;13.30;;
38479;SDS011;62333;51.980;5.934;2022-11-15T04:26:02;18.35;;;11.90;;
38479;SDS011;62333;51.980;5.934;2022-11-15T04:28:29;27.80;;;12.55;;
38479;SDS011;62333;51.980;5.934;2022-11-15T04:30:55;20.55;;;13.63;;
38479;SDS011;62333;51.980;5.934;2022-11-15T04:33:21;25.23;;;15.10;;
38479;SDS011;62333;51.980;5.934;2022-11-15T04:35:46;20.60;;;14.43;;
38479;SDS011;62333;51.980;5.934;2022-11-15T04:38:32;19.92;;;13.52;;
38479;SDS011;62333;51.980;5.934;2022-11-15T04:40:58;20.20;;;14.73;;
38479;SDS011;62333;51.980;5.934;2022-11-15T04:43:24;24.60;;;14.77;;
38479;SDS011;62333;51.980;5.934;2022-11-15T04:45:49;21.38;;;13.07;;
38479;SDS011;62333;51.980;5.934;2022-11-15T04:48:15;26.25;;;16.27;;
38479;SDS011;62333;51.980;5.934;2022-11-15T04:50:41;16.88;;;12.13;;
38479;SDS011;62333;51.980;5.934;2022-11-15T04:53:06;20.27;;;13.45;;
38479;SDS011;62333;51.980;5.934;2022-11-15T04:55:32;18.33;;;12.60;;
38479;SDS011;62333;51.980;5.934;2022-11-15T04:57:58;19.73;;;13.07;;
38479;SDS011;62333;51.980;5.934;2022-11-15T05:00:25;19.15;;;15.38;;
38479;SDS011;62333;51.980;5.934;2022-11-15T05:02:51;23.75;;;15.00;;
38479;SDS011;62333;51.980;5.934;2022-11-15T05:05:36;16.95;;;13.02;;
38479;SDS011;62333;51.980;5.934;2022-11-15T05:08:01;18.52;;;14.15;;
38479;SDS011;62333;51.980;5.934;2022-11-15T05:10:27;20.63;;;14.57;;
38479;SDS011;62333;51.980;5.934;2022-11-15T05:12:53;18.85;;;12.15;;
38479;SDS011;62333;51.980;5.934;2022-11-15T05:15:18;21.92;;;13.90;;
38479;SDS011;62333;51.980;5.934;2022-11-15T05:17:44;18.67;;;12.73;;
38479;SDS011;62333;51.980;5.934;2022-11-15T05:20:10;21.58;;;13.45;;
38479;SDS011;62333;51.980;5.934;2022-11-15T05:22:36;15.43;;;11.98;;
38479;SDS011;62333;51.980;5.934;2022-11-15T05:25:02;21.15;;;14.00;;
38479;SDS011;62333;51.980;5.934;2022-11-15T05:27:28;17.90;;;13.45;;
38479;SDS011;62333;51.980;5.934;2022-11-15T05:29:54;19.42;;;12.32;;
38479;SDS011;62333;51.980;5.934;2022-11-15T05:32:20;20.90;;;12.90;;
38479;SDS011;62333;51.980;5.934;2022-11-15T05:34:46;16.10;;;12.32;;
38479;SDS011;62333;51.980;5.934;2022-11-15T05:37:12;15.45;;;11.68;;
38479;SDS011;62333;51.980;5.934;2022-11-15T05:39:38;17.75;;;12.88;;
38479;SDS011;62333;51.980;5.934;2022-11-15T05:42:05;17.17;;;11.70;;
38479;SDS011;62333;51.980;5.934;2022-11-15T05:44:36;19.15;;;13.07;;
38479;SDS011;62333;51.980;5.934;2022-11-15T05:47:03;19.73;;;13.75;;
38479;SDS011;62333;51.980;5.934;2022-11-15T05:49:33;19.83;;;14.23;;
38479;SDS011;62333;51.980;5.934;2022-11-15T05:52:04;18.88;;;12.63;;
38479;SDS011;62333;51.980;5.934;2022-11-15T05:54:32;19.83;;;13.52;;
38479;SDS011;62333;51.980;5.934;2022-11-15T05:56:58;18.50;;;14.15;;
38479;SDS011;62333;51.980;5.934;2022-11-15T05:59:25;18.38;;;12.40;;
38479;SDS011;62333;51.980;5.934;2022-11-15T06:01:52;20.65;;;13.95;;
38479;SDS011;62333;51.980;5.934;2022-11-15T06:04:18;20.65;;;14.32;;
38479;SDS011;62333;51.980;5.934;2022-11-15T06:06:44;24.52;;;15.35;;
38479;SDS011;62333;51.980;5.934;2022-11-15T06:09:09;18.58;;;14.23;;
38479;SDS011;62333;51.980;5.934;2022-11-15T06:11:35;22.23;;;14.30;;
38479;SDS011;62333;51.980;5.934;2022-11-15T06:14:00;20.67;;;12.63;;
38479;SDS011;62333;51.980;5.934;2022-11-15T06:16:26;20.17;;;14.45;;
38479;SDS011;62333;51.980;5.934;2022-11-15T06:18:52;17.05;;;12.10;;
38479;SDS011;62333;51.980;5.934;2022-11-15T06:21:17;20.95;;;14.68;;
38479;SDS011;62333;51.980;5.934;2022-11-15T06:23:43;19.83;;;13.10;;
38479;SDS011;62333;51.980;5.934;2022-11-15T06:26:09;18.33;;;13.43;;
38479;SDS011;62333;51.980;5.934;2022-11-15T06:28:34;25.65;;;13.98;;
38479;SDS011;62333;51.980;5.934;2022-11-15T06:31:07;19.35;;;13.35;;
38479;SDS011;62333;51.980;5.934;2022-11-15T06:33:34;17.20;;;12.10;;
38479;SDS011;62333;51.980;5.934;2022-11-15T06:36:02;15.23;;;12.30;;
38479;SDS011;62333;51.980;5.934;2022-11-15T06:38:29;17.60;;;12.45;;
38479;SDS011;62333;51.980;5.934;2022-11-15T06:40:54;16.60;;;11.50;;
38479;SDS011;62333;51.980;5.934;2022-11-15T06:43:25;19.73;;;13.55;;
38479;SDS011;62333;51.980;5.934;2022-11-15T06:45:51;18.17;;;14.13;;
38479;SDS011;62333;51.980;5.934;2022-11-15T06:48:16;18.23;;;13.02;;
38479;SDS011;62333;51.980;5.934;2022-11-15T06:50:42;15.15;;;11.90;;
38479;SDS011;62333;51.980;5.934;2022-11-15T06:53:08;21.10;;;12.85;;
38479;SDS011;62333;51.980;5.934;2022-11-15T06:55:33;22.27;;;14.02;;
38479;SDS011;62333;51.980;5.934;2022-11-15T06:57:59;14.30;;;11.70;;
38479;SDS011;62333;51.980;5.934;2022-11-15T07:00:24;23.27;;;14.88;;
38479;SDS011;62333;51.980;5.934;2022-11-15T07:02:50;22.83;;;15.18;;
38479;SDS011;62333;51.980;5.934;2022-11-15T07:05:16;17.92;;;14.05;;
38479;SDS011;62333;51.980;5.934;2022-11-15T07:07:42;23.77;;;16.20;;
38479;SDS011;62333;51.980;5.934;2022-11-15T07:10:08;21.65;;;14.98;;
38479;SDS011;62333;51.980;5.934;2022-11-15T07:12:34;22.33;;;15.43;;
38479;SDS011;62333;51.980;5.934;2022-11-15T07:15:00;23.30;;;15.30;;
38479;SDS011;62333;51.980;5.934;2022-11-15T07:17:25;17.45;;;12.60;;
38479;SDS011;62333;51.980;5.934;2022-11-15T07:19:51;20.65;;;14.52;;
38479;SDS011;62333;51.980;5.934;2022-11-15T07:22:17;17.25;;;12.85;;
38479;SDS011;62333;51.980;5.934;2022-11-15T07:24:42;20.67;;;12.35;;
38479;SDS011;62333;51.980;5.934;2022-11-15T07:27:08;16.73;;;13.43;;
38479;SDS011;62333;51.980;5.934;2022-11-15T07:29:33;24.67;;;17.17;;
38479;SDS011;62333;51.980;5.934;2022-11-15T07:31:59;21.85;;;13.90;;
38479;SDS011;62333;51.980;5.934;2022-11-15T07:34:24;16.17;;;12.18;;
38479;SDS011;62333;51.980;5.934;2022-11-15T07:36:50;19.90;;;14.02;;
38479;SDS011;62333;51.980;5.934;2022-11-15T07:39:16;19.27;;;12.38;;
38479;SDS011;62333;51.980;5.934;2022-11-15T07:41:42;15.45;;;13.13;;
38479;SDS011;62333;51.980;5.934;2022-11-15T07:44:08;21.00;;;15.13;;
38479;SDS011;62333;51.980;5.934;2022-11-15T07:46:34;23.05;;;16.50;;
38479;SDS011;62333;51.980;5.934;2022-11-15T07:48:59;18.25;;;11.93;;
38479;SDS011;62333;51.980;5.934;2022-11-15T07:51:25;17.55;;;12.68;;
38479;SDS011;62333;51.980;5.934;2022-11-15T07:53:51;18.27;;;13.18;;
38479;SDS011;62333;51.980;5.934;2022-11-15T07:56:16;15.82;;;11.43;;
38479;SDS011;62333;51.980;5.934;2022-11-15T07:58:42;18.08;;;11.07;;
38479;SDS011;62333;51.980;5.934;2022-11-15T08:01:10;14.52;;;10.65;;
38479;SDS011;62333;51.980;5.934;2022-11-15T08:03:35;16.08;;;11.20;;
38479;SDS011;62333;51.980;5.934;2022-11-15T08:06:01;13.40;;;10.55;;
38479;SDS011;62333;51.980;5.934;2022-11-15T08:08:27;14.38;;;9.75;;
38479;SDS011;62333;51.980;5.934;2022-11-15T08:10:53;14.93;;;10.82;;
38479;SDS011;62333;51.980;5.934;2022-11-15T08:13:19;18.92;;;11.18;;
38479;SDS011;62333;51.980;5.934;2022-11-15T08:15:45;16.77;;;11.57;;
38479;SDS011;62333;51.980;5.934;2022-11-15T08:18:11;15.88;;;11.50;;
38479;SDS011;62333;51.980;5.934;2022-11-15T08:20:39;16.00;;;11.13;;
38479;SDS011;62333;51.980;5.934;2022-11-15T08:23:05;14.07;;;10.60;;
38479;SDS011;62333;51.980;5.934;2022-11-15T08:25:32;15.20;;;9.52;;
38479;SDS011;62333;51.980;5.934;2022-11-15T08:27:59;12.23;;;9.27;;
38479;SDS011;62333;51.980;5.934;2022-11-15T08:30:27;19.85;;;12.65;;
38479;SDS011;62333;51.980;5.934;2022-11-15T08:32:53;15.60;;;11.15;;
38479;SDS011;62333;51.980;5.934;2022-11-15T08:35:20;18.58;;;11.20;;
38479;SDS011;62333;51.980;5.934;2022-11-15T08:37:46;15.23;;;10.82;;
38479;SDS011;62333;51.980;5.934;2022-11-15T08:40:12;13.18;;;9.20;;
38479;SDS011;62333;51.980;5.934;2022-11-15T08:42:38;9.23;;;7.93;;
38479;SDS011;62333;51.980;5.934;2022-11-15T08:45:04;12.55;;;9.38;;
38479;SDS011;62333;51.980;5.934;2022-11-15T08:47:30;12.90;;;9.77;;
38479;SDS011;62333;51.980;5.934;2022-11-15T08:49:56;18.52;;;10.85;;
38479;SDS011;62333;51.980;5.934;2022-11-15T08:52:21;14.93;;;10.55;;
38479;SDS011;62333;51.980;5.934;2022-11-15T08:54:47;12.23;;;8.75;;
38479;SDS011;62333;51.980;5.934;2022-11-15T08:57:13;16.23;;;10.18;;
38479;SDS011;62333;51.980;5.934;2022-11-15T08:59:38;15.18;;;9.25;;
38479;SDS011;62333;51.980;5.934;2022-11-15T09:02:04;12.30;;;9.65;;
38479;SDS011;62333;51.980;5.934;2022-11-15T09:04:31;18.77;;;11.63;;
38479;SDS011;62333;51.980;5.934;2022-11-15T09:06:57;16.20;;;9.23;;
38479;SDS011;62333;51.980;5.934;2022-11-15T09:09:22;12.38;;;8.65;;
38479;SDS011;62333;51.980;5.934;2022-11-15T09:11:48;10.77;;;7.30;;
38479;SDS011;62333;51.980;5.934;2022-11-15T09:14:15;12.68;;;7.00;;
38479;SDS011;62333;51.980;5.934;2022-11-15T09:16:41;12.38;;;7.97;;
38479;SDS011;62333;51.980;5.934;2022-11-15T09:19:07;11.93;;;7.85;;
38479;SDS011;62333;51.980;5.934;2022-11-15T09:21:32;12.30;;;9.95;;
38479;SDS011;62333;51.980;5.934;2022-11-15T09:23:58;10.93;;;7.25;;
38479;SDS011;62333;51.980;5.934;2022-11-15T09:26:24;10.02;;;5.95;;
38479;SDS011;62333;51.980;5.934;2022-11-15T09:28:50;12.20;;;6.88;;
38479;SDS011;62333;51.980;5.934;2022-11-15T09:31:15;11.70;;;7.30;;
38479;SDS011;62333;51.980;5.934;2022-11-15T09:33:44;10.05;;;5.80;;
38479;SDS011;62333;51.980;5.934;2022-11-15T09:36:10;14.35;;;6.00;;
38479;SDS011;62333;51.980;5.934;2022-11-15T09:38:36;11.63;;;6.35;;
38479;SDS011;62333;51.980;5.934;2022-11-15T09:41:08;10.95;;;7.95;;
38479;SDS011;62333;51.980;5.934;2022-11-15T09:46:59;10.23;;;5.72;;
38479;SDS011;62333;51.980;5.934;2022-11-15T09:51:51;13.10;;;5.28;;
38479;SDS011;62333;51.980;5.934;2022-11-15T09:54:29;11.48;;;7.13;;
38479;SDS011;62333;51.980;5.934;2022-11-15T09:57:04;10.80;;;6.10;;
38479;SDS011;62333;51.980;5.934;2022-11-15T09:59:40;8.75;;;5.20;;
38479;SDS011;62333;51.980;5.934;2022-11-15T10:04:59;9.27;;;5.45;;
38479;SDS011;62333;51.980;5.934;2022-11-15T10:07:50;9.88;;;5.03;;
38479;SDS011;62333;51.980;5.934;2022-11-15T10:10:47;8.10;;;5.78;;
38479;SDS011;62333;51.980;5.934;2022-11-15T10:13:24;8.30;;;3.92;;
38479;SDS011;62333;51.980;5.934;2022-11-15T10:15:54;9.63;;;3.95;;
38479;SDS011;62333;51.980;5.934;2022-11-15T10:21:12;7.60;;;3.88;;
38479;SDS011;62333;51.980;5.934;2022-11-15T10:23:42;5.05;;;3.15;;
38479;SDS011;62333;51.980;5.934;2022-11-15T10:26:09;8.40;;;3.33;;
38479;SDS011;62333;51.980;5.934;2022-11-15T10:28:41;8.48;;;3.80;;
38479;SDS011;62333;51.980;5.934;2022-11-15T10:31:26;6.63;;;3.78;;
38479;SDS011;62333;51.980;5.934;2022-11-15T10:36:43;8.68;;;2.70;;
38479;SDS011;62333;51.980;5.934;2022-11-15T10:39:13;4.95;;;2.10;;
38479;SDS011;62333;51.980;5.934;2022-11-15T10:41:39;5.85;;;2.08;;
38479;SDS011;62333;51.980;5.934;2022-11-15T10:46:36;3.45;;;1.30;;
38479;SDS011;62333;51.980;5.934;2022-11-15T10:49:16;3.85;;;1.13;;
38479;SDS011;62333;51.980;5.934;2022-11-15T10:51:47;7.55;;;0.98;;
38479;SDS011;62333;51.980;5.934;2022-11-15T10:57:12;2.75;;;1.08;;
38479;SDS011;62333;51.980;5.934;2022-11-15T10:59:38;9.70;;;1.40;;
38479;SDS011;62333;51.980;5.934;2022-11-15T11:05:03;3.30;;;0.93;;
38479;SDS011;62333;51.980;5.934;2022-11-15T11:08:22;2.22;;;0.52;;
38479;SDS011;62333;51.980;5.934;2022-11-15T11:11:14;4.43;;;1.13;;
38479;SDS011;62333;51.980;5.934;2022-11-15T11:13:37;4.28;;;0.70;;
38479;SDS011;62333;51.980;5.934;2022-11-15T11:30:21;2.13;;;0.68;;
38479;SDS011;62333;51.980;5.934;2022-11-15T11:33:01;0.80;;;0.30;;
38479;SDS011;62333;51.980;5.934;2022-11-15T11:41:10;1.40;;;0.75;;
38479;SDS011;62333;51.980;5.934;2022-11-15T11:43:51;2.45;;;0.65;;
38479;SDS011;62333;51.980;5.934;2022-11-15T11:46:33;4.32;;;0.65;;
38479;SDS011;62333;51.980;5.934;2022-11-15T11:52:25;4.18;;;0.55;;
38479;SDS011;62333;51.980;5.934;2022-11-15T12:00:04;2.33;;;0.60;;
38479;SDS011;62333;51.980;5.934;2022-11-15T12:02:48;2.42;;;0.73;;
38479;SDS011;62333;51.980;5.934;2022-11-15T12:05:40;2.85;;;0.63;;
38479;SDS011;62333;51.980;5.934;2022-11-15T12:08:15;3.30;;;0.60;;
38479;SDS011;62333;51.980;5.934;2022-11-15T12:11:07;1.80;;;0.38;;
38479;SDS011;62333;51.980;5.934;2022-11-15T12:13:36;1.50;;;0.40;;
38479;SDS011;62333;51.980;5.934;2022-11-15T12:16:21;1.60;;;0.30;;
38479;SDS011;62333;51.980;5.934;2022-11-15T12:18:56;0.80;;;0.20;;
38479;SDS011;62333;51.980;5.934;2022-11-15T12:24:20;4.30;;;1.75;;
38479;SDS011;62333;51.980;5.934;2022-11-15T12:29:37;3.03;;;0.63;;
38479;SDS011;62333;51.980;5.934;2022-11-15T12:32:05;3.08;;;1.02;;
38479;SDS011;62333;51.980;5.934;2022-11-15T12:34:59;3.65;;;0.75;;
38479;SDS011;62333;51.980;5.934;2022-11-15T12:42:56;2.75;;;0.60;;
38479;SDS011;62333;51.980;5.934;2022-11-15T12:45:45;3.63;;;0.55;;
38479;SDS011;62333;51.980;5.934;2022-11-15T12:56:24;3.42;;;0.60;;
38479;SDS011;62333;51.980;5.934;2022-11-15T12:58:46;4.95;;;0.88;;
38479;SDS011;62333;51.980;5.934;2022-11-15T13:04:12;3.10;;;0.25;;
38479;SDS011;62333;51.980;5.934;2022-11-15T13:12:02;2.60;;;0.75;;
38479;SDS011;62333;51.980;5.934;2022-11-15T13:14:39;1.30;;;0.30;;
38479;SDS011;62333;51.980;5.934;2022-11-15T13:22:46;1.77;;;0.60;;
38479;SDS011;62333;51.980;5.934;2022-11-15T13:33:31;2.17;;;0.20;;
38479;SDS011;62333;51.980;5.934;2022-11-15T13:36:03;2.97;;;0.30;;
38479;SDS011;62333;51.980;5.934;2022-11-15T13:38:39;2.50;;;0.70;;
38479;SDS011;62333;51.980;5.934;2022-11-15T13:44:18;4.00;;;1.45;;
38479;SDS011;62333;51.980;5.934;2022-11-15T13:47:05;7.55;;;2.20;;
38479;SDS011;62333;51.980;5.934;2022-11-15T13:49:37;5.40;;;2.38;;
38479;SDS011;62333;51.980;5.934;2022-11-15T13:52:04;5.43;;;2.15;;
38479;SDS011;62333;51.980;5.934;2022-11-15T13:54:50;6.38;;;1.92;;
38479;SDS011;62333;51.980;5.934;2022-11-15T13:59:53;3.15;;;0.88;;
38479;SDS011;62333;51.980;5.934;2022-11-15T14:02:40;1.63;;;0.43;;
38479;SDS011;62333;51.980;5.934;2022-11-15T14:05:19;3.08;;;0.73;;
38479;SDS011;62333;51.980;5.934;2022-11-15T14:08:00;2.17;;;0.50;;
38479;SDS011;62333;51.980;5.934;2022-11-15T14:10:47;4.25;;;0.70;;
38479;SDS011;62333;51.980;5.934;2022-11-15T14:13:29;1.83;;;0.80;;
38479;SDS011;62333;51.980;5.934;2022-11-15T14:18:51;2.92;;;0.93;;
38479;SDS011;62333;51.980;5.934;2022-11-15T14:21:18;1.60;;;0.57;;
38479;SDS011;62333;51.980;5.934;2022-11-15T14:23:46;7.47;;;1.85;;
38479;SDS011;62333;51.980;5.934;2022-11-15T14:26:27;3.75;;;0.95;;
38479;SDS011;62333;51.980;5.934;2022-11-15T14:28:55;1.77;;;0.40;;
38479;SDS011;62333;51.980;5.934;2022-11-15T14:31:21;4.50;;;0.90;;
38479;SDS011;62333;51.980;5.934;2022-11-15T14:33:47;2.88;;;0.30;;
38479;SDS011;62333;51.980;5.934;2022-11-15T14:36:17;5.22;;;1.33;;
38479;SDS011;62333;51.980;5.934;2022-11-15T14:38:44;5.10;;;1.15;;
38479;SDS011;62333;51.980;5.934;2022-11-15T14:41:20;2.58;;;0.85;;
38479;SDS011;62333;51.980;5.934;2022-11-15T14:43:48;2.83;;;0.93;;
38479;SDS011;62333;51.980;5.934;2022-11-15T14:46:14;3.72;;;1.00;;
38479;SDS011;62333;51.980;5.934;2022-11-15T14:48:40;4.43;;;1.35;;
38479;SDS011;62333;51.980;5.934;2022-11-15T14:51:10;5.20;;;1.25;;
38479;SDS011;62333;51.980;5.934;2022-11-15T14:53:37;2.17;;;0.45;;
38479;SDS011;62333;51.980;5.934;2022-11-15T14:56:04;7.72;;;1.13;;
38479;SDS011;62333;51.980;5.934;2022-11-15T14:58:29;2.42;;;0.55;;
38479;SDS011;62333;51.980;5.934;2022-11-15T15:00:55;2.67;;;0.40;;
38479;SDS011;62333;51.980;5.934;2022-11-15T15:03:20;1.38;;;0.30;;
38479;SDS011;62333;51.980;5.934;2022-11-15T15:05:46;2.70;;;0.30;;
38479;SDS011;62333;51.980;5.934;2022-11-15T15:08:12;3.65;;;0.63;;
38479;SDS011;62333;51.980;5.934;2022-11-15T15:10:44;1.63;;;0.50;;
38479;SDS011;62333;51.980;5.934;2022-11-15T15:13:20;1.20;;;0.55;;
38479;SDS011;62333;51.980;5.934;2022-11-15T15:15:48;2.58;;;0.82;;
38479;SDS011;62333;51.980;5.934;2022-11-15T15:18:15;3.42;;;0.40;;
38479;SDS011;62333;51.980;5.934;2022-11-15T15:20:41;1.88;;;0.45;;
38479;SDS011;62333;51.980;5.934;2022-11-15T15:23:17;2.60;;;0.75;;
38479;SDS011;62333;51.980;5.934;2022-11-15T15:25:45;2.72;;;0.40;;
38479;SDS011;62333;51.980;5.934;2022-11-15T15:28:11;3.67;;;0.38;;
38479;SDS011;62333;51.980;5.934;2022-11-15T15:30:37;2.55;;;0.43;;
38479;SDS011;62333;51.980;5.934;2022-11-15T15:33:03;1.30;;;0.38;;
38479;SDS011;62333;51.980;5.934;2022-11-15T15:35:29;1.25;;;0.35;;
38479;SDS011;62333;51.980;5.934;2022-11-15T15:37:57;3.88;;;0.40;;
38479;SDS011;62333;51.980;5.934;2022-11-15T15:40:24;3.35;;;1.00;;
38479;SDS011;62333;51.980;5.934;2022-11-15T15:42:50;3.65;;;0.82;;
38479;SDS011;62333;51.980;5.934;2022-11-15T15:45:16;1.40;;;0.35;;
38479;SDS011;62333;51.980;5.934;2022-11-15T15:47:43;2.22;;;0.70;;
38479;SDS011;62333;51.980;5.934;2022-11-15T15:50:25;3.42;;;0.98;;
38479;SDS011;62333;51.980;5.934;2022-11-15T15:52:57;3.97;;;0.47;;
38479;SDS011;62333;51.980;5.934;2022-11-15T15:55:24;4.70;;;0.40;;
38479;SDS011;62333;51.980;5.934;2022-11-15T15:57:50;5.80;;;1.13;;
38479;SDS011;62333;51.980;5.934;2022-11-15T16:00:17;1.73;;;0.20;;
38479;SDS011;62333;51.980;5.934;2022-11-15T16:02:43;0.95;;;0.30;;
38479;SDS011;62333;51.980;5.934;2022-11-15T16:05:09;4.57;;;0.50;;
38479;SDS011;62333;51.980;5.934;2022-11-15T16:07:36;2.08;;;0.57;;
38479;SDS011;62333;51.980;5.934;2022-11-15T16:10:04;4.88;;;1.38;;
38479;SDS011;62333;51.980;5.934;2022-11-15T16:12:44;2.33;;;0.40;;
38479;SDS011;62333;51.980;5.934;2022-11-15T16:15:10;2.30;;;0.50;;
38479;SDS011;62333;51.980;5.934;2022-11-15T16:17:42;2.30;;;0.30;;
38479;SDS011;62333;51.980;5.934;2022-11-15T16:22:48;2.80;;;0.45;;
38479;SDS011;62333;51.980;5.934;2022-11-15T16:25:14;2.05;;;0.45;;
38479;SDS011;62333;51.980;5.934;2022-11-15T16:27:40;5.40;;;0.75;;
38479;SDS011;62333;51.980;5.934;2022-11-15T16:30:14;2.05;;;0.45;;
38479;SDS011;62333;51.980;5.934;2022-11-15T16:32:40;6.00;;;1.00;;
38479;SDS011;62333;51.980;5.934;2022-11-15T16:35:07;3.30;;;0.98;;
38479;SDS011;62333;51.980;5.934;2022-11-15T16:37:37;4.25;;;1.08;;
38479;SDS011;62333;51.980;5.934;2022-11-15T16:40:10;5.53;;;0.63;;
38479;SDS011;62333;51.980;5.934;2022-11-15T16:42:48;3.28;;;1.00;;
38479;SDS011;62333;51.980;5.934;2022-11-15T16:45:14;5.47;;;1.05;;
38479;SDS011;62333;51.980;5.934;2022-11-15T16:47:39;3.35;;;0.40;;
38479;SDS011;62333;51.980;5.934;2022-11-15T16:50:05;5.15;;;1.15;;
38479;SDS011;62333;51.980;5.934;2022-11-15T16:52:31;3.50;;;0.63;;
38479;SDS011;62333;51.980;5.934;2022-11-15T16:54:56;5.43;;;0.85;;
38479;SDS011;62333;51.980;5.934;2022-11-15T16:57:22;5.07;;;0.60;;
38479;SDS011;62333;51.980;5.934;2022-11-15T16:59:48;3.38;;;0.70;;
38479;SDS011;62333;51.980;5.934;2022-11-15T17:02:13;1.90;;;0.60;;
38479;SDS011;62333;51.980;5.934;2022-11-15T17:04:39;4.45;;;0.80;;
38479;SDS011;62333;51.980;5.934;2022-11-15T17:07:05;5.68;;;1.30;;